createdAt,value
2024-03-15T00:00:36.234Z,91.74
2024-03-15T00:01:36.188Z,91.84
2024-03-15T00:02:36.434Z,92.04
2024-03-15T00:03:36.318Z,92.46
2024-03-15T00:04:36.235Z,92.55
2024-03-15T00:05:36.258Z,92.46
2024-03-15T00:06:36.325Z,92.35
2024-03-15T00:07:36.303Z,92.55
2024-03-15T00:08:36.367Z,92.35
2024-03-15T00:09:36.343Z,92.04
2024-03-15T00:10:36.348Z,91.74
2024-03-15T00:11:36.333Z,91.84
2024-03-15T00:12:36.370Z,91.74
2024-03-15T00:13:36.496Z,91.84
2024-03-15T00:14:36.371Z,92.14
2024-03-15T00:15:36.466Z,92.46
2024-03-15T00:16:36.391Z,92.86
2024-03-15T00:17:36.455Z,92.76
2024-03-15T00:18:36.494Z,92.66
2024-03-15T00:19:36.452Z,92.46
2024-03-15T00:20:36.491Z,92.14
2024-03-15T00:21:36.635Z,91.94
2024-03-15T00:22:36.498Z,91.84
2024-03-15T00:23:36.561Z,92.04
2024-03-15T00:24:36.555Z,92.14
2024-03-15T00:25:36.586Z,92.25
2024-03-15T00:26:36.579Z,92.14
2024-03-15T00:27:36.674Z,92.14
2024-03-15T00:28:36.640Z,92.14
2024-03-15T00:29:36.623Z,92.04
2024-03-15T00:30:36.762Z,91.94
2024-03-15T00:31:36.706Z,91.94
2024-03-15T00:32:36.691Z,92.14
2024-03-15T00:33:36.782Z,92.40
2024-03-15T00:34:36.705Z,92.50
2024-03-15T00:35:36.724Z,92.50
2024-03-15T00:36:36.810Z,92.50
2024-03-15T00:37:36.772Z,92.91
2024-03-15T00:38:36.783Z,92.91
2024-03-15T00:39:36.882Z,92.60
2024-03-15T00:40:36.800Z,92.50
2024-03-15T00:41:36.845Z,92.29
2024-03-15T00:42:36.892Z,92.40
2024-03-15T00:43:36.896Z,92.40
2024-03-15T00:44:36.900Z,92.40
2024-03-15T00:45:36.953Z,92.60
2024-03-15T00:46:36.961Z,92.50
2024-03-15T00:47:37.123Z,92.50
2024-03-15T00:48:37.062Z,92.40
2024-03-15T00:49:37.017Z,92.40
2024-03-15T00:50:37.032Z,92.29
2024-03-15T00:51:37.106Z,92.40
2024-03-15T00:52:37.078Z,92.80
2024-03-15T00:53:37.118Z,93.21
2024-03-15T00:54:37.169Z,93.12
2024-03-15T00:55:37.129Z,92.80
2024-03-15T00:56:37.166Z,92.60
2024-03-15T00:57:37.246Z,92.50
2024-03-15T00:58:37.227Z,92.60
2024-03-15T00:59:37.244Z,92.70
2024-03-15T01:00:37.293Z,92.60
2024-03-15T01:01:37.333Z,92.60
2024-03-15T01:02:37.338Z,92.70
2024-03-15T01:03:37.380Z,92.80
2024-03-15T01:04:37.355Z,92.70
2024-03-15T01:05:37.377Z,92.50
2024-03-15T01:06:37.412Z,92.64
2024-03-15T01:07:37.412Z,92.85
2024-03-15T01:08:37.467Z,93.16
2024-03-15T01:09:37.499Z,93.36
2024-03-15T01:10:37.508Z,93.46
2024-03-15T01:11:37.526Z,93.57
2024-03-15T01:12:37.588Z,93.57
2024-03-15T01:13:37.583Z,93.36
2024-03-15T01:14:37.561Z,93.32
2024-03-15T01:15:37.614Z,93.52
2024-03-15T01:16:37.683Z,93.73
2024-03-15T01:17:37.778Z,93.93
2024-03-15T01:18:37.734Z,93.93
2024-03-15T01:19:37.696Z,93.93
2024-03-15T01:20:37.731Z,93.73
2024-03-15T01:21:37.784Z,93.63
2024-03-15T01:22:37.793Z,93.73
2024-03-15T01:23:37.838Z,93.63
2024-03-15T01:24:37.840Z,93.73
2024-03-15T01:25:37.859Z,93.63
2024-03-15T01:26:37.877Z,93.52
2024-03-15T01:27:38.005Z,93.42
2024-03-15T01:28:37.961Z,93.42
2024-03-15T01:29:37.957Z,93.42
2024-03-15T01:30:38.072Z,93.52
2024-03-15T01:31:38.041Z,93.52
2024-03-15T01:32:38.095Z,93.63
2024-03-15T01:33:38.168Z,93.63
2024-03-15T01:34:38.129Z,93.52
2024-03-15T01:35:38.166Z,93.52
2024-03-15T01:36:38.205Z,93.52
2024-03-15T01:37:38.178Z,93.52
2024-03-15T01:38:38.231Z,93.63
2024-03-15T01:39:38.275Z,93.52
2024-03-15T01:40:38.267Z,93.52
2024-03-15T01:41:38.268Z,93.63
2024-03-15T01:42:38.306Z,93.63
2024-03-15T01:43:38.344Z,93.73
2024-03-15T01:44:38.331Z,93.63
2024-03-15T01:45:38.502Z,93.63
2024-03-15T01:46:38.366Z,93.63
2024-03-15T01:47:38.492Z,93.52
2024-03-15T01:48:38.543Z,93.52
2024-03-15T01:49:38.449Z,93.42
2024-03-15T01:50:38.467Z,93.42
2024-03-15T01:51:38.549Z,93.32
2024-03-15T01:52:38.508Z,93.27
2024-03-15T01:53:38.600Z,93.21
2024-03-15T01:54:38.624Z,93.32
2024-03-15T01:55:38.608Z,93.32
2024-03-15T01:56:38.607Z,93.42
2024-03-15T01:57:38.714Z,93.42
2024-03-15T01:58:38.684Z,93.42
2024-03-15T01:59:38.678Z,93.32
2024-03-15T02:00:38.734Z,93.32
2024-03-15T02:01:38.752Z,93.32
2024-03-15T02:02:38.731Z,93.32
2024-03-15T02:03:38.825Z,93.32
2024-03-15T02:04:38.785Z,93.27
2024-03-15T02:05:38.806Z,93.32
2024-03-15T02:06:38.854Z,93.32
2024-03-15T02:07:38.852Z,93.42
2024-03-15T02:08:38.903Z,93.27
2024-03-15T02:09:38.898Z,93.21
2024-03-15T02:10:39.047Z,93.12
2024-03-15T02:11:38.953Z,93.21
2024-03-15T02:12:38.964Z,93.21
2024-03-15T02:13:39.045Z,93.07
2024-03-15T02:14:39.022Z,93.07
2024-03-15T02:15:39.144Z,92.91
2024-03-15T02:16:39.075Z,92.76
2024-03-15T02:17:39.189Z,92.91
2024-03-15T02:18:39.150Z,92.91
2024-03-15T02:19:39.143Z,92.91
2024-03-15T02:20:39.197Z,92.86
2024-03-15T02:21:39.209Z,92.91
2024-03-15T02:22:39.223Z,92.80
2024-03-15T02:23:39.309Z,92.80
2024-03-15T02:24:39.317Z,92.80
2024-03-15T02:25:39.306Z,92.80
2024-03-15T02:26:39.309Z,92.80
2024-03-15T02:27:39.396Z,92.80
2024-03-15T02:28:39.404Z,92.70
2024-03-15T02:29:39.396Z,92.80
2024-03-15T02:30:39.507Z,92.91
2024-03-15T02:31:39.450Z,93.01
2024-03-15T02:32:39.511Z,93.12
2024-03-15T02:33:39.571Z,93.12
2024-03-15T02:34:39.746Z,93.12
2024-03-15T02:35:39.532Z,93.01
2024-03-15T02:36:39.594Z,92.91
2024-03-15T02:37:39.594Z,93.01
2024-03-15T02:38:39.630Z,93.12
2024-03-15T02:39:39.655Z,93.01
2024-03-15T02:40:39.632Z,92.91
2024-03-15T02:41:39.670Z,92.95
2024-03-15T02:42:39.826Z,92.95
2024-03-15T02:43:39.755Z,92.95
2024-03-15T02:44:39.755Z,92.95
2024-03-15T02:45:39.805Z,93.05
2024-03-15T02:46:39.804Z,93.16
2024-03-15T02:47:39.846Z,93.26
2024-03-15T02:48:40.009Z,93.26
2024-03-15T02:49:39.876Z,93.36
2024-03-15T02:50:39.902Z,93.36
2024-03-15T02:51:40.027Z,93.16
2024-03-15T02:52:39.945Z,93.05
2024-03-15T02:53:40.008Z,92.95
2024-03-15T02:54:40.109Z,92.95
2024-03-15T02:55:40.036Z,92.95
2024-03-15T02:56:40.064Z,93.05
2024-03-15T02:57:40.165Z,93.05
2024-03-15T02:58:40.137Z,93.16
2024-03-15T02:59:40.147Z,93.20
2024-03-15T03:00:40.212Z,93.20
2024-03-15T03:01:40.234Z,93.30
2024-03-15T03:02:40.229Z,93.30
2024-03-15T03:03:40.310Z,93.30
2024-03-15T03:04:40.281Z,93.30
2024-03-15T03:05:40.321Z,93.40
2024-03-15T03:06:40.379Z,93.40
2024-03-15T03:07:40.381Z,93.40
2024-03-15T03:08:40.441Z,93.30
2024-03-15T03:09:40.516Z,93.30
2024-03-15T03:10:40.447Z,93.51
2024-03-15T03:11:40.489Z,93.71
2024-03-15T03:12:40.577Z,93.92
2024-03-15T03:13:40.610Z,94.12
2024-03-15T03:14:40.559Z,94.12
2024-03-15T03:15:40.638Z,94.23
2024-03-15T03:16:40.635Z,94.12
2024-03-15T03:17:40.680Z,94.02
2024-03-15T03:18:40.749Z,93.82
2024-03-15T03:19:40.736Z,93.71
2024-03-15T03:20:40.754Z,93.61
2024-03-15T03:21:40.929Z,93.51
2024-03-15T03:22:40.820Z,93.51
2024-03-15T03:23:40.886Z,93.40
2024-03-15T03:24:40.897Z,93.30
2024-03-15T03:25:40.897Z,93.20
2024-03-15T03:26:40.941Z,93.10
2024-03-15T03:27:41.011Z,92.99
2024-03-15T03:28:41.028Z,92.89
2024-03-15T03:29:41.016Z,92.99
2024-03-15T03:30:41.052Z,93.20
2024-03-15T03:31:41.112Z,93.40
2024-03-15T03:32:41.233Z,93.51
2024-03-15T03:33:41.213Z,93.30
2024-03-15T03:34:41.180Z,93.20
2024-03-15T03:35:41.208Z,92.99
2024-03-15T03:36:41.308Z,92.79
2024-03-15T03:37:41.278Z,92.79
2024-03-15T03:38:41.325Z,92.79
2024-03-15T03:39:41.431Z,92.99
2024-03-15T03:40:41.379Z,93.20
2024-03-15T03:41:41.421Z,93.24
2024-03-15T03:42:41.538Z,93.35
2024-03-15T03:43:41.535Z,93.35
2024-03-15T03:44:41.529Z,93.24
2024-03-15T03:45:43.022Z,93.35
2024-03-15T03:46:41.618Z,93.35
2024-03-15T03:47:41.673Z,93.55
2024-03-15T03:48:41.825Z,93.55
2024-03-15T03:49:41.747Z,93.65
2024-03-15T03:50:41.750Z,93.76
2024-03-15T03:51:41.831Z,93.65
2024-03-15T03:52:41.816Z,93.65
2024-03-15T03:53:41.896Z,93.65
2024-03-15T03:54:41.902Z,93.65
2024-03-15T03:55:41.932Z,93.65
2024-03-15T03:56:41.950Z,93.76
2024-03-15T03:57:45.390Z,93.76
2024-03-15T03:58:42.069Z,93.76
2024-03-15T03:59:42.070Z,93.76
2024-03-15T04:00:42.298Z,93.76
2024-03-15T04:01:42.156Z,93.86
2024-03-15T04:02:42.164Z,93.86
2024-03-15T04:03:42.286Z,94.07
2024-03-15T04:04:42.255Z,94.27
2024-03-15T04:05:42.285Z,94.48
2024-03-15T04:06:42.333Z,94.58
2024-03-15T04:07:42.376Z,94.68
2024-03-15T04:08:42.475Z,94.68
2024-03-15T04:09:42.429Z,94.68
2024-03-15T04:10:42.478Z,94.58
2024-03-15T04:11:42.567Z,94.58
2024-03-15T04:12:42.577Z,94.48
2024-03-15T04:13:42.616Z,94.37
2024-03-15T04:14:50.928Z,94.33
2024-03-15T04:15:42.688Z,94.23
2024-03-15T04:16:42.671Z,94.23
2024-03-15T04:17:42.743Z,94.12
2024-03-15T04:18:42.788Z,94.12
2024-03-15T04:19:43.087Z,94.02
2024-03-15T04:20:42.834Z,94.02
2024-03-15T04:21:42.966Z,94.02
2024-03-15T04:22:42.927Z,93.92
2024-03-15T04:23:43.005Z,93.82
2024-03-15T04:24:43.022Z,93.71
2024-03-15T04:25:43.064Z,93.51
2024-03-15T04:26:43.069Z,93.51
2024-03-15T04:27:43.205Z,93.51
2024-03-15T04:28:43.194Z,93.61
2024-03-15T04:29:43.203Z,93.61
2024-03-15T04:30:43.329Z,93.51
2024-03-15T04:31:43.269Z,93.51
2024-03-15T04:32:43.337Z,93.51
2024-03-15T04:33:43.436Z,93.51
2024-03-15T04:34:43.376Z,93.51
2024-03-15T04:35:43.439Z,93.51
2024-03-15T04:36:43.523Z,93.51
2024-03-15T04:37:43.488Z,93.40
2024-03-15T04:38:43.568Z,93.40
2024-03-15T04:39:43.638Z,93.40
2024-03-15T04:40:43.633Z,93.40
2024-03-15T04:41:43.679Z,93.40
2024-03-15T04:42:43.995Z,93.30
2024-03-15T04:43:43.771Z,93.30
2024-03-15T04:44:43.766Z,93.30
2024-03-15T04:45:43.848Z,93.30
2024-03-15T04:46:43.845Z,93.30
2024-03-15T04:47:44.001Z,93.30
2024-03-15T04:48:43.965Z,93.30
2024-03-15T04:49:43.956Z,93.30
2024-03-15T04:50:44.011Z,93.40
2024-03-15T04:51:44.055Z,93.51
2024-03-15T04:52:44.074Z,93.61
2024-03-15T04:53:44.149Z,93.71
2024-03-15T04:54:44.217Z,93.82
2024-03-15T04:55:44.194Z,93.92
2024-03-15T04:56:44.209Z,93.92
2024-03-15T04:57:44.329Z,93.92
2024-03-15T04:58:44.314Z,94.02
2024-03-15T04:59:44.327Z,93.92
2024-03-15T05:00:44.409Z,93.82
2024-03-15T05:01:44.463Z,93.82
2024-03-15T05:02:44.452Z,93.82
2024-03-15T05:03:44.583Z,93.71
2024-03-15T05:04:44.544Z,93.82
2024-03-15T05:05:44.581Z,93.82
2024-03-15T05:06:44.688Z,93.92
2024-03-15T05:07:44.668Z,93.92
2024-03-15T05:08:51.333Z,93.82
2024-03-15T05:09:44.855Z,93.82
2024-03-15T05:10:44.915Z,93.82
2024-03-15T05:11:44.863Z,93.71
2024-03-15T05:12:45.318Z,93.71
2024-03-15T05:13:44.945Z,93.71
2024-03-15T05:14:44.908Z,93.71
2024-03-15T05:15:45.024Z,93.82
2024-03-15T05:16:45.001Z,93.82
2024-03-15T05:17:45.107Z,93.82
2024-03-15T05:18:45.163Z,93.82
2024-03-15T05:19:45.112Z,93.86
2024-03-15T05:20:45.151Z,93.82
2024-03-15T05:21:45.342Z,93.92
2024-03-15T05:22:45.848Z,93.82
2024-03-15T05:23:45.290Z,93.71
2024-03-15T05:24:45.326Z,93.71
2024-03-15T05:25:46.821Z,93.65
2024-03-15T05:26:45.372Z,93.61
2024-03-15T05:27:45.471Z,93.76
2024-03-15T05:28:45.468Z,93.71
2024-03-15T05:29:45.532Z,93.71
2024-03-15T05:30:45.679Z,93.71
2024-03-15T05:31:45.568Z,93.76
2024-03-15T05:32:45.640Z,93.65
2024-03-15T05:33:45.735Z,93.76
2024-03-15T05:34:45.664Z,93.76
2024-03-15T05:35:45.695Z,93.76
2024-03-15T05:36:45.925Z,93.76
2024-03-15T05:37:45.782Z,93.86
2024-03-15T05:38:45.833Z,93.96
2024-03-15T05:39:45.962Z,93.96
2024-03-15T05:40:45.870Z,93.86
2024-03-15T05:41:45.907Z,93.96
2024-03-15T05:42:46.022Z,93.96
2024-03-15T05:43:46.001Z,93.96
2024-03-15T05:44:46.023Z,94.07
2024-03-15T05:45:46.148Z,94.07
2024-03-15T05:46:46.096Z,93.96
2024-03-15T05:47:46.168Z,93.86
2024-03-15T05:48:46.217Z,93.76
2024-03-15T05:49:46.214Z,93.76
2024-03-15T05:50:46.254Z,93.76
2024-03-15T05:51:46.415Z,93.76
2024-03-15T05:52:46.302Z,93.71
2024-03-15T05:53:48.444Z,93.71
2024-03-15T05:54:46.407Z,93.71
2024-03-15T05:55:46.424Z,93.61
2024-03-15T05:56:46.432Z,93.61
2024-03-15T05:57:46.534Z,93.51
2024-03-15T05:58:46.526Z,93.51
2024-03-15T05:59:46.608Z,93.51
2024-03-15T06:00:46.648Z,93.51
2024-03-15T06:01:46.653Z,93.51
2024-03-15T06:02:46.673Z,93.51
2024-03-15T06:03:46.792Z,93.40
2024-03-15T06:04:46.742Z,93.30
2024-03-15T06:05:46.791Z,93.30
2024-03-15T06:06:46.950Z,93.20
2024-03-15T06:07:47.763Z,93.20
2024-03-15T06:08:46.913Z,93.10
2024-03-15T06:09:47.004Z,93.10
2024-03-15T06:10:46.997Z,93.20
2024-03-15T06:11:47.055Z,93.20
2024-03-15T06:12:47.139Z,93.10
2024-03-15T06:13:47.131Z,92.95
2024-03-15T06:14:47.152Z,92.74
2024-03-15T06:15:47.258Z,92.74
2024-03-15T06:16:47.218Z,92.64
2024-03-15T06:17:47.305Z,92.54
2024-03-15T06:18:47.459Z,92.54
2024-03-15T06:19:47.330Z,92.54
2024-03-15T06:20:49.999Z,92.64
2024-03-15T06:21:47.545Z,92.64
2024-03-15T06:22:47.427Z,92.74
2024-03-15T06:23:47.511Z,92.74
2024-03-15T06:24:47.548Z,92.95
2024-03-15T06:25:47.574Z,92.95
2024-03-15T06:26:47.577Z,92.95
2024-03-15T06:27:47.681Z,92.74
2024-03-15T06:28:47.671Z,92.64
2024-03-15T06:29:47.686Z,92.64
2024-03-15T06:30:47.758Z,92.64
2024-03-15T06:31:47.758Z,92.64
2024-03-15T06:32:47.891Z,92.64
2024-03-15T06:33:47.911Z,92.64
2024-03-15T06:34:47.868Z,92.64
2024-03-15T06:35:47.872Z,92.60
2024-03-15T06:36:47.977Z,92.60
2024-03-15T06:37:47.970Z,92.60
2024-03-15T06:38:47.997Z,92.60
2024-03-15T06:39:48.131Z,92.70
2024-03-15T06:40:48.038Z,92.70
2024-03-15T06:41:48.085Z,92.60
2024-03-15T06:42:48.142Z,92.70
2024-03-15T06:43:48.161Z,92.70
2024-03-15T06:44:48.284Z,92.60
2024-03-15T06:45:48.213Z,92.60
2024-03-15T06:46:48.198Z,92.55
2024-03-15T06:47:48.234Z,92.46
2024-03-15T06:48:48.433Z,92.35
2024-03-15T06:49:48.290Z,92.25
2024-03-15T06:50:48.303Z,92.04
2024-03-15T06:51:48.422Z,91.94
2024-03-15T06:52:48.373Z,91.84
2024-03-15T06:53:48.429Z,91.80
2024-03-15T06:54:48.560Z,91.80
2024-03-15T06:55:48.465Z,91.69
2024-03-15T06:56:48.475Z,91.59
2024-03-15T06:57:48.533Z,91.49
2024-03-15T06:58:48.568Z,91.28
2024-03-15T06:59:48.552Z,91.28
2024-03-15T07:00:48.644Z,91.24
2024-03-15T07:01:48.616Z,91.24
2024-03-15T07:02:48.618Z,91.24
2024-03-15T07:03:48.752Z,91.14
2024-03-15T07:04:48.665Z,91.03
2024-03-15T07:05:48.718Z,90.93
2024-03-15T07:06:48.699Z,90.79
2024-03-15T07:07:48.736Z,90.58
2024-03-15T07:08:50.725Z,90.28
2024-03-15T07:09:48.846Z,89.97
2024-03-15T07:10:48.856Z,89.66
2024-03-15T07:11:49.732Z,89.45
2024-03-15T07:12:48.890Z,89.45
2024-03-15T07:13:48.871Z,89.42
2024-03-15T07:14:50.483Z,89.21
2024-03-15T07:15:48.960Z,89.00
2024-03-15T07:16:48.908Z,89.00
2024-03-15T07:17:49.148Z,89.00
2024-03-15T07:18:49.247Z,88.80
2024-03-15T07:19:49.065Z,88.70
2024-03-15T07:20:48.949Z,88.65
2024-03-15T07:21:49.175Z,88.56
2024-03-15T07:22:49.275Z,88.24
2024-03-15T07:23:49.051Z,88.04
2024-03-15T07:24:49.050Z,87.94
2024-03-15T07:25:49.049Z,87.94
2024-03-15T07:26:49.082Z,87.94
2024-03-15T07:27:49.137Z,87.94
2024-03-15T07:28:49.072Z,88.04
2024-03-15T07:29:49.176Z,87.94
2024-03-15T07:30:49.143Z,87.79
2024-03-15T07:31:49.142Z,87.59
2024-03-15T07:32:49.255Z,87.29
2024-03-15T07:33:49.181Z,87.18
2024-03-15T07:34:49.143Z,87.29
2024-03-15T07:35:49.254Z,87.29
2024-03-15T07:36:49.218Z,87.29
2024-03-15T07:37:49.228Z,87.08
2024-03-15T07:38:49.643Z,86.98
2024-03-15T07:39:50.147Z,87.18
2024-03-15T07:40:49.189Z,87.18
2024-03-15T07:41:49.224Z,87.08
2024-03-15T07:42:49.291Z,87.08
2024-03-15T07:43:49.215Z,87.18
2024-03-15T07:44:49.228Z,87.38
2024-03-15T07:45:49.479Z,87.29
2024-03-15T07:46:49.245Z,87.29
2024-03-15T07:47:49.302Z,87.18
2024-03-15T07:48:49.351Z,87.14
2024-03-15T07:49:49.248Z,87.14
2024-03-15T07:50:49.232Z,86.83
2024-03-15T07:51:49.323Z,86.73
2024-03-15T07:52:49.241Z,86.43
2024-03-15T07:53:49.270Z,86.29
2024-03-15T07:54:49.358Z,86.18
2024-03-15T07:55:49.252Z,86.18
2024-03-15T07:56:49.316Z,85.67
2024-03-15T07:57:49.432Z,85.22
2024-03-15T07:58:49.262Z,85.12
2024-03-15T07:59:49.294Z,84.81
2024-03-15T08:00:49.335Z,84.71
2024-03-15T08:01:49.498Z,84.36
2024-03-15T08:02:49.285Z,84.36
2024-03-15T08:03:49.322Z,84.47
2024-03-15T08:04:49.427Z,83.95
2024-03-15T08:05:49.314Z,83.71
2024-03-15T08:06:49.334Z,83.61
2024-03-15T08:07:49.304Z,83.20
2024-03-15T08:08:49.263Z,83.00
2024-03-15T08:09:49.353Z,82.96
2024-03-15T08:10:49.475Z,83.16
2024-03-15T08:11:49.353Z,82.75
2024-03-15T08:12:49.372Z,82.65
2024-03-15T08:13:49.260Z,82.45
2024-03-15T08:14:49.259Z,82.45
2024-03-15T08:15:49.318Z,82.45
2024-03-15T08:16:49.218Z,82.45
2024-03-15T08:17:49.309Z,82.45
2024-03-15T08:18:49.284Z,82.55
2024-03-15T08:19:49.227Z,82.65
2024-03-15T08:20:49.186Z,82.35
2024-03-15T08:21:49.495Z,82.35
2024-03-15T08:22:49.182Z,82.35
2024-03-15T08:23:49.168Z,82.24
2024-03-15T08:24:49.202Z,82.35
2024-03-15T08:25:49.135Z,82.35
2024-03-15T08:26:49.117Z,82.35
2024-03-15T08:27:50.438Z,82.35
2024-03-15T08:28:49.084Z,82.55
2024-03-15T08:29:49.095Z,82.55
2024-03-15T08:30:49.747Z,82.65
2024-03-15T08:31:49.110Z,82.24
2024-03-15T08:32:49.072Z,82.14
2024-03-15T08:33:49.213Z,82.14
2024-03-15T08:34:49.100Z,82.24
2024-03-15T08:35:49.015Z,82.14
2024-03-15T08:36:49.089Z,82.10
2024-03-15T08:37:48.994Z,81.80
2024-03-15T08:38:48.941Z,82.00
2024-03-15T08:39:48.959Z,81.90
2024-03-15T08:40:48.899Z,81.90
2024-03-15T08:41:48.865Z,82.00
2024-03-15T08:42:48.857Z,81.66
2024-03-15T08:43:48.820Z,81.15
2024-03-15T08:44:48.850Z,80.64
2024-03-15T08:45:48.787Z,80.50
2024-03-15T08:46:49.050Z,80.40
2024-03-15T08:47:59.049Z,79.99
2024-03-15T08:48:48.807Z,79.24
2024-03-15T08:49:48.680Z,79.34
2024-03-15T08:50:48.584Z,79.41
2024-03-15T08:51:48.569Z,78.89
2024-03-15T08:52:48.515Z,78.49
2024-03-15T08:53:48.489Z,77.94
2024-03-15T08:54:48.524Z,78.35
2024-03-15T08:55:48.431Z,77.20
2024-03-15T08:56:48.371Z,77.20
2024-03-15T08:57:48.439Z,76.86
2024-03-15T08:58:48.290Z,76.86
2024-03-15T08:59:48.297Z,76.65
2024-03-15T09:00:48.292Z,75.73
2024-03-15T09:01:48.259Z,75.63
2024-03-15T09:02:48.124Z,75.53
2024-03-15T09:03:48.499Z,75.53
2024-03-15T09:04:48.095Z,75.33
2024-03-15T09:05:48.019Z,75.12
2024-03-15T09:06:48.016Z,75.23
2024-03-15T09:07:47.985Z,75.33
2024-03-15T09:08:48.949Z,75.33
2024-03-15T09:09:47.916Z,75.43
2024-03-15T09:10:47.890Z,75.73
2024-03-15T09:11:47.802Z,75.98
2024-03-15T09:12:47.825Z,76.07
2024-03-15T09:13:49.416Z,76.38
2024-03-15T09:14:47.624Z,76.79
2024-03-15T09:15:47.611Z,76.68
2024-03-15T09:16:47.547Z,76.79
2024-03-15T09:17:47.655Z,76.79
2024-03-15T09:18:47.535Z,76.89
2024-03-15T09:19:47.365Z,77.40
2024-03-15T09:20:47.371Z,77.70
2024-03-15T09:21:47.326Z,77.70
2024-03-15T09:22:47.206Z,77.50
2024-03-15T09:23:47.173Z,77.50
2024-03-15T09:24:47.219Z,77.29
2024-03-15T09:25:47.100Z,77.47
2024-03-15T09:26:47.014Z,77.26
2024-03-15T09:27:47.104Z,76.86
2024-03-15T09:28:47.074Z,76.45
2024-03-15T09:29:46.908Z,76.31
2024-03-15T09:30:54.100Z,75.70
2024-03-15T09:32:00.678Z,75.40
2024-03-15T09:32:46.813Z,75.40
2024-03-15T09:33:46.759Z,75.67
2024-03-15T09:34:46.716Z,75.76
2024-03-15T09:35:46.567Z,75.36
2024-03-15T09:36:46.589Z,74.41
2024-03-15T09:37:46.580Z,74.41
2024-03-15T09:38:46.426Z,74.62
2024-03-15T09:39:46.428Z,73.70
2024-03-15T09:40:46.291Z,73.60
2024-03-15T09:41:46.242Z,74.01
2024-03-15T09:42:46.208Z,74.01
2024-03-15T09:43:46.142Z,73.19
2024-03-15T09:44:46.048Z,73.50
2024-03-15T09:45:46.042Z,73.70
2024-03-15T09:46:45.944Z,73.70
2024-03-15T09:47:45.955Z,73.80
2024-03-15T09:48:45.886Z,73.70
2024-03-15T09:49:45.817Z,74.01
2024-03-15T09:50:45.730Z,74.01
2024-03-15T09:51:45.748Z,74.10
2024-03-15T09:52:45.674Z,74.10
2024-03-15T09:53:45.554Z,74.01
2024-03-15T09:54:45.505Z,74.01
2024-03-15T09:55:45.424Z,73.70
2024-03-15T09:56:45.314Z,73.39
2024-03-15T09:57:45.385Z,73.50
2024-03-15T09:58:45.195Z,73.39
2024-03-15T09:59:45.164Z,73.29
2024-03-15T10:00:45.116Z,73.39
2024-03-15T10:01:45.103Z,73.39
2024-03-15T10:02:44.954Z,73.60
2024-03-15T10:03:44.974Z,73.60
2024-03-15T10:04:44.831Z,73.80
2024-03-15T10:05:44.772Z,73.80
2024-03-15T10:06:44.688Z,73.70
2024-03-15T10:07:44.632Z,73.90
2024-03-15T10:08:44.572Z,73.70
2024-03-15T10:09:44.538Z,73.70
2024-03-15T10:10:44.427Z,73.50
2024-03-15T10:11:44.377Z,73.39
2024-03-15T10:12:44.477Z,73.50
2024-03-15T10:13:44.420Z,73.70
2024-03-15T10:14:44.204Z,74.01
2024-03-15T10:15:44.145Z,74.10
2024-03-15T10:16:44.037Z,74.07
2024-03-15T10:17:44.109Z,73.77
2024-03-15T10:18:44.002Z,72.96
2024-03-15T10:19:43.976Z,72.96
2024-03-15T10:20:43.833Z,72.85
2024-03-15T10:21:43.765Z,72.96
2024-03-15T10:22:43.657Z,73.36
2024-03-15T10:23:43.589Z,73.36
2024-03-15T10:24:43.556Z,73.16
2024-03-15T10:25:43.435Z,73.16
2024-03-15T10:26:43.363Z,72.85
2024-03-15T10:27:43.584Z,72.75
2024-03-15T10:28:43.232Z,72.65
2024-03-15T10:29:43.235Z,72.85
2024-03-15T10:30:43.124Z,72.82
2024-03-15T10:31:43.179Z,72.11
2024-03-15T10:32:42.972Z,72.01
2024-03-15T10:33:42.943Z,72.01
2024-03-15T10:34:42.911Z,72.61
2024-03-15T10:35:42.746Z,72.48
2024-03-15T10:36:42.704Z,72.17
2024-03-15T10:37:42.635Z,71.26
2024-03-15T10:38:42.524Z,71.16
2024-03-15T10:39:42.639Z,71.44
2024-03-15T10:40:42.357Z,70.83
2024-03-15T10:41:42.338Z,70.62
2024-03-15T10:42:42.240Z,70.42
2024-03-15T10:43:42.140Z,70.93
2024-03-15T10:44:42.066Z,71.09
2024-03-15T10:45:42.025Z,70.69
2024-03-15T10:46:41.911Z,70.29
2024-03-15T10:47:42.188Z,69.88
2024-03-15T10:48:41.847Z,70.05
2024-03-15T10:49:41.797Z,70.05
2024-03-15T10:50:41.605Z,69.74
2024-03-15T10:51:41.533Z,69.54
2024-03-15T10:52:41.414Z,69.54
2024-03-15T10:53:41.358Z,69.01
2024-03-15T10:54:41.396Z,68.90
2024-03-15T10:55:41.202Z,68.50
2024-03-15T10:56:41.076Z,68.50
2024-03-15T10:57:41.073Z,68.60
2024-03-15T10:58:40.966Z,68.10
2024-03-15T10:59:40.877Z,68.10
2024-03-15T11:00:40.894Z,68.60
2024-03-15T11:01:40.860Z,68.90
2024-03-15T11:02:40.566Z,68.90
2024-03-15T11:03:40.554Z,68.60
2024-03-15T11:04:40.402Z,68.80
2024-03-15T11:05:40.278Z,68.80
2024-03-15T11:06:40.309Z,67.79
2024-03-15T11:07:40.243Z,67.69
2024-03-15T11:08:40.027Z,68.50
2024-03-15T11:09:39.984Z,68.50
2024-03-15T11:10:40.002Z,68.80
2024-03-15T11:11:39.782Z,68.80
2024-03-15T11:12:39.714Z,68.10
2024-03-15T11:13:39.564Z,68.30
2024-03-15T11:14:39.462Z,68.70
2024-03-15T11:15:39.414Z,68.60
2024-03-15T11:16:39.314Z,68.60
2024-03-15T11:17:39.196Z,68.50
2024-03-15T11:18:39.357Z,68.90
2024-03-15T11:19:39.005Z,68.50
2024-03-15T11:20:38.911Z,68.47
2024-03-15T11:21:38.847Z,68.37
2024-03-15T11:22:38.734Z,68.16
2024-03-15T11:23:38.622Z,68.37
2024-03-15T11:24:38.604Z,68.37
2024-03-15T11:25:38.441Z,68.16
2024-03-15T11:26:38.336Z,67.66
2024-03-15T11:27:38.328Z,67.76
2024-03-15T11:28:38.153Z,68.06
2024-03-15T11:29:38.058Z,68.37
2024-03-15T11:30:38.043Z,67.93
2024-03-15T11:31:37.897Z,67.52
2024-03-15T11:32:37.776Z,67.32
2024-03-15T11:33:37.791Z,67.22
2024-03-15T11:34:37.620Z,66.99
2024-03-15T11:35:37.943Z,65.78
2024-03-15T11:36:37.428Z,65.27
2024-03-15T11:37:37.310Z,65.67
2024-03-15T11:38:37.200Z,65.75
2024-03-15T11:39:37.209Z,65.24
2024-03-15T11:40:37.037Z,64.94
2024-03-15T11:41:37.933Z,65.04
2024-03-15T11:42:36.848Z,64.84
2024-03-15T11:43:36.760Z,64.50
2024-03-15T11:44:36.604Z,64.50
2024-03-15T11:45:36.684Z,64.61
2024-03-15T11:46:36.413Z,64.20
2024-03-15T11:47:37.640Z,63.79
2024-03-15T11:48:36.263Z,63.29
2024-03-15T11:49:36.091Z,63.59
2024-03-15T11:50:35.990Z,63.39
2024-03-15T11:51:35.918Z,63.59
2024-03-15T11:52:35.754Z,63.09
2024-03-15T11:53:36.672Z,62.38
2024-03-15T11:54:35.577Z,62.15
2024-03-15T11:55:35.473Z,62.35
2024-03-15T11:56:35.342Z,62.25
2024-03-15T11:57:35.371Z,62.35
2024-03-15T11:58:35.102Z,62.35
2024-03-15T11:59:37.409Z,62.76
2024-03-15T12:00:34.973Z,62.35
2024-03-15T12:01:34.906Z,62.05
2024-03-15T12:02:34.697Z,61.75
2024-03-15T12:03:34.665Z,62.25
2024-03-15T12:04:34.521Z,62.76
2024-03-15T12:05:34.832Z,62.65
2024-03-15T12:06:34.306Z,62.85
2024-03-15T12:07:34.163Z,62.85
2024-03-15T12:08:34.008Z,62.02
2024-03-15T12:09:33.970Z,62.02
2024-03-15T12:10:33.791Z,61.52
2024-03-15T12:11:34.394Z,60.71
2024-03-15T12:12:33.560Z,60.21
2024-03-15T12:13:33.493Z,60.51
2024-03-15T12:14:33.324Z,60.81
2024-03-15T12:15:33.395Z,60.31
2024-03-15T12:16:33.098Z,60.10
2024-03-15T12:17:34.936Z,60.61
2024-03-15T12:18:32.932Z,60.71
2024-03-15T12:19:32.790Z,60.91
2024-03-15T12:20:32.647Z,60.00
2024-03-15T12:21:32.573Z,60.08
2024-03-15T12:22:32.406Z,60.17
2024-03-15T12:23:35.421Z,59.97
2024-03-15T12:24:32.200Z,59.77
2024-03-15T12:25:32.085Z,59.67
2024-03-15T12:26:31.935Z,59.27
2024-03-15T12:27:31.833Z,59.47
2024-03-15T12:28:31.713Z,59.57
2024-03-15T12:29:33.366Z,59.17
2024-03-15T12:30:31.541Z,58.54
2024-03-15T12:31:31.368Z,58.64
2024-03-15T12:32:31.239Z,58.23
2024-03-15T12:33:31.243Z,58.54
2024-03-15T12:34:30.987Z,58.54
2024-03-15T12:35:31.551Z,58.54
2024-03-15T12:36:30.760Z,58.64
2024-03-15T12:37:30.654Z,58.54
2024-03-15T12:38:30.529Z,58.44
2024-03-15T12:39:30.467Z,58.34
2024-03-15T12:40:30.292Z,58.54
2024-03-15T12:41:30.192Z,58.44
2024-03-15T12:42:30.075Z,58.74
2024-03-15T12:43:29.927Z,59.07
2024-03-15T12:44:29.788Z,58.94
2024-03-15T12:45:29.735Z,58.23
2024-03-15T12:46:29.541Z,58.23
2024-03-15T12:47:29.435Z,58.14
2024-03-15T12:48:29.331Z,58.03
2024-03-15T12:49:29.183Z,57.63
2024-03-15T12:50:29.080Z,57.63
2024-03-15T12:51:29.203Z,57.63
2024-03-15T12:52:28.833Z,57.43